Time;durP1;ratioP1;P1;durP2;ratioP2;P2;SDS_P1;SDS_P2;PMS_P1;PMS_P2;Temp;Humidity;BMP_temperature;BMP_pressure;BME280_temperature;BME280_humidity;BME280_pressure;Samples;Min_cycle;Max_cycle;Signal;HPM_P1;HPM_P2
2022/04/29 00:02:14;;;;;;;15.43;6.90;;;;;;;;;;5092158;28;20271;-78
2022/04/29 00:04:42;;;;;;;7.63;6.93;;;;;;;;;;5072637;28;20181;-79
2022/04/29 00:07:09;;;;;;;7.93;6.70;;;;;;;;;;5073792;28;20345;-77
2022/04/29 00:09:35;;;;;;;8.77;6.27;;;;;;;;;;5072079;28;20176;-80
2022/04/29 00:12:02;;;;;;;11.30;7.03;;;;;;;;;;5072206;28;20626;-78
2022/04/29 00:14:28;;;;;;;7.30;6.63;;;;;;;;;;5073543;28;20199;-77
2022/04/29 00:16:54;;;;;;;8.67;7.33;;;;;;;;;;5073325;28;20179;-79
2022/04/29 00:19:21;;;;;;;8.00;7.20;;;;;;;;;;5091504;28;20253;-78
2022/04/29 00:21:47;;;;;;;7.93;7.23;;;;;;;;;;5087898;28;20180;-78
2022/04/29 00:24:13;;;;;;;7.40;6.80;;;;;;;;;;5072799;28;20652;-78
2022/04/29 00:26:39;;;;;;;7.90;7.10;;;;;;;;;;5071194;28;20192;-79
2022/04/29 00:29:06;;;;;;;8.27;7.30;;;;;;;;;;5071670;28;20281;-82
2022/04/29 00:31:32;;;;;;;8.57;6.90;;;;;;;;;;5070311;28;20294;-78
2022/04/29 00:33:58;;;;;;;8.63;6.93;;;;;;;;;;5071178;28;20191;-78
2022/04/29 00:36:25;;;;;;;6.90;6.13;;;;;;;;;;5070504;28;20177;-77
2022/04/29 00:38:51;;;;;;;8.20;7.40;;;;;;;;;;5068350;28;20195;-78
2022/04/29 00:41:18;;;;;;;6.93;6.33;;;;;;;;;;5070358;28;20465;-77
2022/04/29 00:43:44;;;;;;;8.43;7.60;;;;;;;;;;5087743;28;20176;-78
2022/04/29 00:46:10;;;;;;;9.13;8.20;;;;;;;;;;5068568;28;20175;-77
2022/04/29 00:48:36;;;;;;;9.00;8.10;;;;;;;;;;5067733;28;20215;-78
2022/04/29 00:51:03;;;;;;;9.07;8.17;;;;;;;;;;5071289;28;20228;-78
2022/04/29 00:53:30;;;;;;;11.10;7.67;;;;;;;;;;5087707;28;20168;-76
2022/04/29 00:55:58;;;;;;;10.90;7.20;;;;;;;;;;5070835;28;20223;-81
2022/04/29 00:58:31;;;;;;;10.00;7.77;;;;;;;;;;5070945;28;20243;-79
2022/04/29 01:00:57;;;;;;;8.33;7.47;;;;;;;;;;5091022;28;20274;-80
2022/04/29 01:03:24;;;;;;;8.37;7.30;;;;;;;;;;5072073;28;20221;-79
2022/04/29 01:05:50;;;;;;;8.93;8.03;;;;;;;;;;5073572;28;20192;-79
2022/04/29 01:08:16;;;;;;;8.10;6.80;;;;;;;;;;5070419;28;20187;-79
2022/04/29 01:10:45;;;;;;;9.17;8.27;;;;;;;;;;5086515;28;20207;-77
2022/04/29 01:13:11;;;;;;;9.63;7.47;;;;;;;;;;5085280;28;20664;-79
2022/04/29 01:15:37;;;;;;;9.13;7.17;;;;;;;;;;5071044;28;20272;-77
2022/04/29 01:18:06;;;;;;;9.13;7.93;;;;;;;;;;5069837;28;20679;-77
2022/04/29 01:20:33;;;;;;;8.00;7.23;;;;;;;;;;5091267;28;20325;-78
2022/04/29 01:22:59;;;;;;;8.87;7.97;;;;;;;;;;5070688;28;20188;-77
2022/04/29 01:25:25;;;;;;;9.17;7.57;;;;;;;;;;5068189;28;20185;-77
2022/04/29 01:27:51;;;;;;;9.93;8.10;;;;;;;;;;5078345;28;20631;-78
2022/04/29 01:30:18;;;;;;;15.43;14.40;;;;;;;;;;5066304;28;20376;-79
2022/04/29 01:32:44;;;;;;;8.97;7.93;;;;;;;;;;5067096;28;20325;-78
2022/04/29 01:35:11;;;;;;;7.67;7.07;;;;;;;;;;5069793;28;20215;-77
2022/04/29 01:37:37;;;;;;;8.10;7.43;;;;;;;;;;5072521;28;20292;-78
2022/04/29 01:40:05;;;;;;;9.57;8.53;;;;;;;;;;5071912;28;20526;-78
2022/04/29 01:42:31;;;;;;;12.80;8.00;;;;;;;;;;5053900;28;20588;-78
2022/04/29 01:44:57;;;;;;;8.73;7.83;;;;;;;;;;5071756;28;20181;-79
2022/04/29 01:47:23;;;;;;;8.40;7.43;;;;;;;;;;5070496;28;20185;-78
2022/04/29 01:49:49;;;;;;;8.20;7.50;;;;;;;;;;5069407;28;20177;-77
2022/04/29 01:52:15;;;;;;;8.63;7.33;;;;;;;;;;5069754;28;20184;-78
2022/04/29 01:54:41;;;;;;;7.87;7.07;;;;;;;;;;5074860;28;20192;-78
2022/04/29 01:57:08;;;;;;;10.47;8.37;;;;;;;;;;5069322;28;20206;-79
2022/04/29 01:59:38;;;;;;;9.93;7.30;;;;;;;;;;5070795;28;20179;-78
2022/04/29 02:02:06;;;;;;;9.63;7.50;;;;;;;;;;5071440;28;20471;-79
2022/04/29 02:04:32;;;;;;;7.93;7.17;;;;;;;;;;5068444;28;20188;-80
2022/04/29 02:06:58;;;;;;;10.63;7.87;;;;;;;;;;5070893;28;20181;-77
2022/04/29 02:09:24;;;;;;;8.27;7.43;;;;;;;;;;5074081;28;20248;-77
2022/04/29 02:12:06;;;;;;;8.17;7.30;;;;;;;;;;5072107;28;20489;-76
2022/04/29 02:14:35;;;;;;;8.97;7.40;;;;;;;;;;5073317;28;20220;-79
2022/04/29 02:17:05;;;;;;;12.57;8.23;;;;;;;;;;5067400;28;20230;-77
2022/04/29 02:19:31;;;;;;;11.43;7.93;;;;;;;;;;5071854;28;20190;-80
2022/04/29 02:21:57;;;;;;;8.43;7.63;;;;;;;;;;5069673;28;20181;-76
2022/04/29 02:24:24;;;;;;;9.93;6.97;;;;;;;;;;5072492;28;20283;-77
2022/04/29 02:26:50;;;;;;;9.43;8.53;;;;;;;;;;5068545;28;20208;-77
2022/04/29 02:29:16;;;;;;;8.60;7.70;;;;;;;;;;5070415;28;20291;-78
2022/04/29 02:31:42;;;;;;;9.13;8.37;;;;;;;;;;5088914;28;20194;-80
2022/04/29 02:34:24;;;;;;;10.20;7.93;;;;;;;;;;5059251;28;20536;-53
2022/04/29 02:37:01;;;;;;;13.90;8.40;;;;;;;;;;5035964;28;20227;-54
2022/04/29 02:39:28;;;;;;;9.70;8.70;;;;;;;;;;5032145;28;20196;-54
2022/04/29 02:41:54;;;;;;;9.83;8.80;;;;;;;;;;5042272;28;20188;-54
2022/04/29 02:44:20;;;;;;;10.17;8.23;;;;;;;;;;5044743;28;20639;-54
2022/04/29 02:47:09;;;;;;;8.63;7.73;;;;;;;;;;5027135;28;20185;-54
2022/04/29 02:49:42;;;;;;;8.60;7.80;;;;;;;;;;5040793;28;20179;-54
2022/04/29 02:52:12;;;;;;;8.63;7.83;;;;;;;;;;5042256;28;20189;-53
2022/04/29 02:54:38;;;;;;;7.90;7.30;;;;;;;;;;5043801;28;20182;-54
2022/04/29 02:57:09;;;;;;;8.50;7.70;;;;;;;;;;5043604;28;20192;-54
2022/04/29 02:59:38;;;;;;;9.53;7.50;;;;;;;;;;5043512;28;20636;-54
2022/04/29 03:02:04;;;;;;;8.67;7.70;;;;;;;;;;5027151;28;20194;-53
2022/04/29 03:04:33;;;;;;;7.67;6.93;;;;;;;;;;5043357;28;20247;-54
2022/04/29 03:07:09;;;;;;;11.13;7.67;;;;;;;;;;5043576;28;20185;-54
2022/04/29 03:09:36;;;;;;;10.40;7.67;;;;;;;;;;5042865;28;20189;-53
2022/04/29 03:12:05;;;;;;;10.13;7.87;;;;;;;;;;5043201;28;20200;-54
2022/04/29 03:14:37;;;;;;;8.00;7.20;;;;;;;;;;5043366;28;20203;-54
2022/04/29 03:17:03;;;;;;;23.50;21.93;;;;;;;;;;5041899;28;20184;-54
2022/04/29 03:19:29;;;;;;;8.03;7.27;;;;;;;;;;5040591;28;20212;-53
2022/04/29 03:21:55;;;;;;;9.57;7.40;;;;;;;;;;5043313;28;20527;-54
2022/04/29 03:24:22;;;;;;;9.13;7.33;;;;;;;;;;5038436;28;20173;-54
2022/04/29 03:26:48;;;;;;;8.87;8.07;;;;;;;;;;5040831;28;20737;-53
2022/04/29 03:29:17;;;;;;;9.20;6.83;;;;;;;;;;5043562;28;20181;-53
2022/04/29 03:31:44;;;;;;;28.40;26.80;;;;;;;;;;5040831;28;20373;-54
2022/04/29 03:34:13;;;;;;;9.37;7.27;;;;;;;;;;5016413;28;20246;-54
2022/04/29 03:39:26;;;;;;;8.97;6.70;;;;;;;;;;5009136;28;20240;-54
2022/04/29 03:41:52;;;;;;;12.10;7.10;;;;;;;;;;5021413;28;20174;-55
2022/04/29 03:44:20;;;;;;;7.90;7.17;;;;;;;;;;5014865;28;20635;-54
2022/04/29 03:46:49;;;;;;;11.93;6.27;;;;;;;;;;5004997;28;20178;-55
2022/04/29 03:52:01;;;;;;;6.57;5.80;;;;;;;;;;5008905;28;20963;-55
2022/04/29 03:54:30;;;;;;;8.50;6.30;;;;;;;;;;5008796;28;20181;-55
2022/04/29 03:56:56;;;;;;;6.97;6.00;;;;;;;;;;5009706;28;20198;-55
2022/04/29 03:59:22;;;;;;;8.17;6.73;;;;;;;;;;4997892;28;20171;-55
2022/04/29 04:01:49;;;;;;;8.77;6.70;;;;;;;;;;4991933;28;20171;-55
2022/04/29 04:04:23;;;;;;;7.17;6.03;;;;;;;;;;5003015;28;20217;-54
2022/04/29 04:06:49;;;;;;;8.20;6.77;;;;;;;;;;5025549;28;20732;-55
2022/04/29 04:09:21;;;;;;;12.27;11.20;;;;;;;;;;4990702;28;20186;-55
2022/04/29 04:11:48;;;;;;;6.73;5.90;;;;;;;;;;4992043;28;20163;-54
2022/04/29 04:14:23;;;;;;;9.20;5.80;;;;;;;;;;5002254;28;20680;-55
2022/04/29 04:16:49;;;;;;;7.10;5.60;;;;;;;;;;5009205;28;20186;-52
2022/04/29 04:19:16;;;;;;;7.77;5.77;;;;;;;;;;5009313;28;20182;-52
2022/04/29 04:21:49;;;;;;;7.70;6.73;;;;;;;;;;5010756;28;20986;-54
2022/04/29 04:24:15;;;;;;;8.77;5.40;;;;;;;;;;5001180;28;20171;-54
2022/04/29 04:26:41;;;;;;;7.60;5.70;;;;;;;;;;5010453;28;20539;-55
2022/04/29 04:29:08;;;;;;;9.07;8.20;;;;;;;;;;5010776;28;20209;-54
2022/04/29 04:31:37;;;;;;;5.53;5.03;;;;;;;;;;5008156;28;20611;-54
2022/04/29 04:36:57;;;;;;;6.30;5.67;;;;;;;;;;5008809;28;20274;-54
2022/04/29 04:39:23;;;;;;;8.47;6.00;;;;;;;;;;5009158;28;20233;-55
2022/04/29 04:41:50;;;;;;;6.97;5.40;;;;;;;;;;5008236;28;20171;-54
2022/04/29 04:44:16;;;;;;;7.53;5.60;;;;;;;;;;5003124;28;20182;-54
2022/04/29 04:46:42;;;;;;;6.57;5.87;;;;;;;;;;5003767;28;20178;-55
2022/04/29 04:49:10;;;;;;;6.63;5.77;;;;;;;;;;5005995;28;20174;-54
2022/04/29 04:51:36;;;;;;;6.20;5.57;;;;;;;;;;5003055;28;20171;-54
2022/04/29 04:54:02;;;;;;;5.77;4.90;;;;;;;;;;5000245;28;20191;-55
2022/04/29 04:56:28;;;;;;;6.83;6.00;;;;;;;;;;5003562;28;20203;-55
2022/04/29 04:58:54;;;;;;;7.37;5.87;;;;;;;;;;5004701;28;20190;-55
2022/04/29 05:01:20;;;;;;;9.30;6.63;;;;;;;;;;5008023;28;20178;-55
2022/04/29 05:03:46;;;;;;;6.80;6.10;;;;;;;;;;5006731;28;20205;-54
2022/04/29 05:06:12;;;;;;;6.03;5.53;;;;;;;;;;5008842;28;21044;-55
2022/04/29 05:08:38;;;;;;;6.73;5.77;;;;;;;;;;5006259;28;20178;-54
2022/04/29 05:11:04;;;;;;;6.77;5.63;;;;;;;;;;5002127;28;20210;-54
2022/04/29 05:13:30;;;;;;;9.77;6.27;;;;;;;;;;5004218;28;20198;-55
2022/04/29 05:15:57;;;;;;;7.57;6.53;;;;;;;;;;5006335;28;20182;-54
2022/04/29 05:18:23;;;;;;;7.13;6.43;;;;;;;;;;5002418;28;20182;-54
2022/04/29 05:21:00;;;;;;;8.33;6.30;;;;;;;;;;5006469;28;20170;-55
2022/04/29 05:23:26;;;;;;;6.00;5.50;;;;;;;;;;4991039;28;20182;-54
2022/04/29 05:25:58;;;;;;;6.53;5.93;;;;;;;;;;5008740;28;20186;-55
2022/04/29 05:28:24;;;;;;;9.03;5.63;;;;;;;;;;5006419;28;20944;-54
2022/04/29 05:30:50;;;;;;;6.53;5.67;;;;;;;;;;5009241;28;20262;-55
2022/04/29 05:33:16;;;;;;;7.30;5.80;;;;;;;;;;5003236;28;20280;-54
2022/04/29 05:35:42;;;;;;;7.27;5.90;;;;;;;;;;5006138;28;20174;-55
2022/04/29 05:38:08;;;;;;;8.03;6.27;;;;;;;;;;5004073;28;20983;-55
2022/04/29 05:43:19;;;;;;;8.03;6.37;;;;;;;;;;4992820;28;20314;-54
2022/04/29 05:45:45;;;;;;;7.70;6.10;;;;;;;;;;5000181;28;20737;-55
2022/04/29 05:48:11;;;;;;;7.00;6.20;;;;;;;;;;5004586;28;20225;-55
2022/04/29 05:50:38;;;;;;;6.97;6.17;;;;;;;;;;5008232;28;20272;-55
2022/04/29 05:53:04;;;;;;;6.93;6.23;;;;;;;;;;5005178;28;20895;-55
2022/04/29 05:55:30;;;;;;;7.07;6.07;;;;;;;;;;5008506;28;20628;-55
2022/04/29 05:57:56;;;;;;;6.83;6.17;;;;;;;;;;5007553;28;20190;-55
2022/04/29 06:00:22;;;;;;;9.47;6.37;;;;;;;;;;5007805;28;20183;-54
2022/04/29 06:02:48;;;;;;;7.20;6.43;;;;;;;;;;5007298;28;20656;-54
2022/04/29 06:05:14;;;;;;;7.37;6.67;;;;;;;;;;5007738;28;20652;-55
2022/04/29 06:07:41;;;;;;;10.10;6.93;;;;;;;;;;5005986;28;20180;-52
2022/04/29 06:10:08;;;;;;;7.10;6.47;;;;;;;;;;5008656;28;20178;-52
2022/04/29 06:12:40;;;;;;;10.13;6.70;;;;;;;;;;5007114;28;20261;-52
2022/04/29 06:15:07;;;;;;;7.87;6.40;;;;;;;;;;5004820;28;20179;-52
2022/04/29 06:17:33;;;;;;;11.10;7.17;;;;;;;;;;5004197;28;20659;-52
2022/04/29 06:19:59;;;;;;;9.83;6.80;;;;;;;;;;5003685;28;20206;-52
2022/04/29 06:22:25;;;;;;;6.97;6.27;;;;;;;;;;5002734;28;20187;-52
2022/04/29 06:24:51;;;;;;;8.50;7.07;;;;;;;;;;5009042;28;20198;-52
2022/04/29 06:27:17;;;;;;;9.03;7.07;;;;;;;;;;5006183;28;20535;-52
2022/04/29 06:29:43;;;;;;;7.87;7.10;;;;;;;;;;4996858;28;20191;-51
2022/04/29 06:32:09;;;;;;;9.07;6.53;;;;;;;;;;5003771;28;20214;-52
2022/04/29 06:34:35;;;;;;;7.63;5.73;;;;;;;;;;5006019;28;20234;-52
2022/04/29 06:37:01;;;;;;;6.87;6.17;;;;;;;;;;5002649;28;20183;-52
2022/04/29 06:39:27;;;;;;;7.60;6.80;;;;;;;;;;5007645;28;20202;-52
2022/04/29 06:41:53;;;;;;;8.60;6.33;;;;;;;;;;5006873;28;20174;-52
2022/04/29 06:44:19;;;;;;;8.40;6.80;;;;;;;;;;4999529;28;20193;-53
2022/04/29 06:46:45;;;;;;;8.97;7.27;;;;;;;;;;5008604;28;20181;-53
2022/04/29 06:49:11;;;;;;;9.03;7.10;;;;;;;;;;5008161;28;20190;-53
2022/04/29 06:51:37;;;;;;;10.03;7.23;;;;;;;;;;5008845;28;20548;-53
2022/04/29 06:54:04;;;;;;;8.70;7.80;;;;;;;;;;5007423;28;20190;-53
2022/04/29 06:56:30;;;;;;;7.82;7.03;;;;;;;;;;5008193;28;20510;-53
2022/04/29 06:58:56;;;;;;;8.00;7.20;;;;;;;;;;5001615;28;20171;-53
2022/04/29 07:01:22;;;;;;;8.17;7.37;;;;;;;;;;5007566;28;20183;-53
2022/04/29 07:03:48;;;;;;;8.23;7.30;;;;;;;;;;5005534;28;20183;-53
2022/04/29 07:06:14;;;;;;;8.07;7.13;;;;;;;;;;5008786;28;20233;-53
2022/04/29 07:08:47;;;;;;;7.60;6.80;;;;;;;;;;5008109;28;20193;-53
2022/04/29 07:11:16;;;;;;;8.20;7.10;;;;;;;;;;5004446;28;20654;-53
2022/04/29 07:13:55;;;;;;;8.10;7.07;;;;;;;;;;5023450;28;20226;-53
2022/04/29 07:16:21;;;;;;;9.83;8.30;;;;;;;;;;5008878;28;20205;-53
2022/04/29 07:18:47;;;;;;;10.53;7.33;;;;;;;;;;5007510;28;20552;-53
2022/04/29 07:21:13;;;;;;;8.70;7.53;;;;;;;;;;5012369;28;20638;-53
2022/04/29 07:23:39;;;;;;;8.23;6.60;;;;;;;;;;4998771;28;20220;-52
2022/04/29 07:26:05;;;;;;;7.77;6.90;;;;;;;;;;5011816;28;20174;-53
2022/04/29 07:28:31;;;;;;;7.53;6.83;;;;;;;;;;5007523;28;20620;-53
2022/04/29 07:30:57;;;;;;;10.30;8.77;;;;;;;;;;5009459;28;20171;-53
2022/04/29 07:33:23;;;;;;;9.53;8.53;;;;;;;;;;5010587;28;20731;-53
2022/04/29 07:44:07;;;;;;;9.20;7.47;;;;;;;;;;5009175;28;20305;-53
2022/04/29 07:46:42;;;;;;;9.13;7.23;;;;;;;;;;5009873;28;20202;-53
2022/04/29 07:49:11;;;;;;;10.83;7.33;;;;;;;;;;5006794;28;20217;-53
2022/04/29 07:51:37;;;;;;;9.20;7.43;;;;;;;;;;5026087;28;20533;-53
2022/04/29 07:54:11;;;;;;;8.17;6.57;;;;;;;;;;5006173;28;20210;-53
2022/04/29 07:56:41;;;;;;;8.20;7.00;;;;;;;;;;5009554;28;20166;-53
2022/04/29 07:59:07;;;;;;;9.87;7.57;;;;;;;;;;5008550;28;20647;-53
2022/04/29 08:01:36;;;;;;;15.47;9.27;;;;;;;;;;5010673;28;20185;-54
2022/04/29 08:04:02;;;;;;;13.57;9.33;;;;;;;;;;5007730;28;20174;-54
2022/04/29 08:06:28;;;;;;;11.53;9.90;;;;;;;;;;5011952;28;20174;-53
2022/04/29 08:08:54;;;;;;;11.13;9.07;;;;;;;;;;4997467;28;20182;-53
2022/04/29 08:11:20;;;;;;;12.40;10.27;;;;;;;;;;5012287;28;20297;-54
2022/04/29 08:13:47;;;;;;;13.00;9.90;;;;;;;;;;4995905;28;20199;-53
2022/04/29 08:16:14;;;;;;;15.87;10.10;;;;;;;;;;5007851;28;20236;-55
2022/04/29 08:18:40;;;;;;;14.37;8.33;;;;;;;;;;5004485;28;20262;-54
2022/04/29 08:21:07;;;;;;;13.70;9.43;;;;;;;;;;5007102;28;20171;-54
2022/04/29 08:23:34;;;;;;;13.93;9.90;;;;;;;;;;5008657;28;20231;-55
2022/04/29 08:26:00;;;;;;;16.07;9.60;;;;;;;;;;5009415;28;20182;-54
2022/04/29 08:28:28;;;;;;;11.47;10.20;;;;;;;;;;5010578;28;20674;-55
2022/04/29 08:30:54;;;;;;;11.13;8.93;;;;;;;;;;5010108;28;20186;-54
2022/04/29 08:33:21;;;;;;;14.20;9.33;;;;;;;;;;4998202;28;20226;-55
2022/04/29 08:35:47;;;;;;;12.07;9.77;;;;;;;;;;5009452;28;20644;-55
2022/04/29 08:38:13;;;;;;;13.00;9.17;;;;;;;;;;5005409;28;20649;-55
2022/04/29 08:40:43;;;;;;;13.43;10.37;;;;;;;;;;5011518;28;20645;-55
2022/04/29 08:43:12;;;;;;;14.40;9.60;;;;;;;;;;4998894;28;20210;-54
2022/04/29 08:45:38;;;;;;;14.40;10.53;;;;;;;;;;5006469;28;20236;-54
2022/04/29 08:48:05;;;;;;;13.30;9.27;;;;;;;;;;4998215;28;20555;-54
2022/04/29 08:50:31;;;;;;;16.03;10.20;;;;;;;;;;4992300;28;20653;-54
2022/04/29 08:52:57;;;;;;;13.33;9.70;;;;;;;;;;4990598;28;20213;-55
2022/04/29 09:01:02;;;;;;;12.40;9.27;;;;;;;;;;5009450;28;20337;-55
2022/04/29 09:03:29;;;;;;;14.57;9.73;;;;;;;;;;5005123;28;20190;-55
2022/04/29 09:05:55;;;;;;;12.40;9.00;;;;;;;;;;5006368;28;20218;-57
2022/04/29 09:08:22;;;;;;;13.67;9.10;;;;;;;;;;5005842;28;20541;-57
2022/04/29 09:10:50;;;;;;;12.27;10.20;;;;;;;;;;5003099;28;20194;-58
2022/04/29 09:13:17;;;;;;;13.17;9.77;;;;;;;;;;4992787;28;20695;-58
2022/04/29 09:15:47;;;;;;;10.87;9.20;;;;;;;;;;5006999;28;20177;-55
2022/04/29 09:18:14;;;;;;;16.03;10.00;;;;;;;;;;5003074;28;20182;-54
2022/04/29 09:20:40;;;;;;;12.67;9.57;;;;;;;;;;5010311;28;20175;-55
2022/04/29 09:23:08;;;;;;;14.23;9.70;;;;;;;;;;5002790;28;20346;-55
2022/04/29 09:25:37;;;;;;;15.87;9.37;;;;;;;;;;5007346;28;20261;-55
2022/04/29 09:28:04;;;;;;;16.37;9.77;;;;;;;;;;5006361;28;20190;-55
2022/04/29 09:30:37;;;;;;;14.07;9.90;;;;;;;;;;5008463;28;20190;-55
2022/04/29 09:33:03;;;;;;;13.07;9.53;;;;;;;;;;5003967;28;20921;-55
2022/04/29 09:35:36;;;;;;;12.03;9.43;;;;;;;;;;5004650;28;20174;-55
2022/04/29 09:40:48;;;;;;;13.10;9.60;;;;;;;;;;5005536;28;20181;-57
2022/04/29 09:43:14;;;;;;;17.00;10.00;;;;;;;;;;5006456;28;20526;-57
2022/04/29 09:45:40;;;;;;;13.50;9.60;;;;;;;;;;5005049;28;20268;-54
2022/04/29 09:48:09;;;;;;;14.67;9.50;;;;;;;;;;4999841;28;20186;-54
2022/04/29 09:50:46;;;;;;;13.37;8.30;;;;;;;;;;5003106;28;20240;-55
2022/04/29 09:53:16;;;;;;;10.63;9.10;;;;;;;;;;4998906;28;20206;-54
2022/04/29 09:55:42;;;;;;;14.07;9.27;;;;;;;;;;5020193;28;20178;-55
2022/04/29 09:58:11;;;;;;;11.37;9.70;;;;;;;;;;5001235;28;20252;-54
2022/04/29 10:00:37;;;;;;;12.00;9.03;;;;;;;;;;4989466;28;20668;-54
2022/04/29 10:03:04;;;;;;;12.00;9.47;;;;;;;;;;5002116;28;20186;-55
2022/04/29 10:05:32;;;;;;;12.13;8.90;;;;;;;;;;5007171;28;20194;-55
2022/04/29 10:07:58;;;;;;;13.00;9.27;;;;;;;;;;5004116;28;20182;-55
2022/04/29 10:10:27;;;;;;;11.90;9.53;;;;;;;;;;4989880;28;20229;-56
2022/04/29 10:12:54;;;;;;;13.63;9.47;;;;;;;;;;4995343;28;20756;-56
2022/04/29 10:15:20;;;;;;;10.03;9.00;;;;;;;;;;5008463;28;20269;-54
2022/04/29 10:23:26;;;;;;;10.60;9.07;;;;;;;;;;5005904;28;20232;-54
2022/04/29 10:25:52;;;;;;;12.17;9.73;;;;;;;;;;5024466;28;20663;-55
2022/04/29 10:28:20;;;;;;;12.47;8.23;;;;;;;;;;5003025;28;20268;-55
2022/04/29 10:30:46;;;;;;;10.67;9.17;;;;;;;;;;4999414;28;20210;-56
2022/04/29 10:33:13;;;;;;;9.73;8.20;;;;;;;;;;5010068;28;20230;-55
2022/04/29 10:35:56;;;;;;;12.43;8.83;;;;;;;;;;5000912;28;20256;-55
2022/04/29 10:38:28;;;;;;;12.07;8.03;;;;;;;;;;5003633;28;20796;-55
2022/04/29 10:41:33;;;;;;;12.90;8.07;;;;;;;;;;5008890;28;20613;-55
2022/04/29 10:44:04;;;;;;;13.93;8.37;;;;;;;;;;4967918;28;20196;-55
2022/04/29 10:46:37;;;;;;;10.37;8.73;;;;;;;;;;4965846;28;20655;-56
2022/04/29 10:49:22;;;;;;;9.90;8.13;;;;;;;;;;4977741;28;20725;-55
2022/04/29 10:51:49;;;;;;;13.93;8.60;;;;;;;;;;5007218;28;20269;-56
2022/04/29 10:54:16;;;;;;;10.97;9.03;;;;;;;;;;4999253;28;20293;-55
2022/04/29 10:56:42;;;;;;;13.43;8.17;;;;;;;;;;5010118;28;20178;-55
2022/04/29 10:59:14;;;;;;;12.27;7.80;;;;;;;;;;5009607;28;20272;-55
2022/04/29 11:01:41;;;;;;;9.43;7.40;;;;;;;;;;5010364;28;20182;-55
2022/04/29 11:04:08;;;;;;;11.03;7.93;;;;;;;;;;4999986;28;20625;-55
2022/04/29 11:06:40;;;;;;;12.20;8.57;;;;;;;;;;5007608;28;20221;-55
2022/04/29 11:09:26;;;;;;;14.70;7.40;;;;;;;;;;5008522;28;20187;-55
2022/04/29 11:11:52;;;;;;;7.63;6.77;;;;;;;;;;5003895;28;20183;-55
2022/04/29 11:14:18;;;;;;;13.63;7.30;;;;;;;;;;5002085;28;20669;-55
2022/04/29 11:16:55;;;;;;;9.63;6.63;;;;;;;;;;5007127;28;20709;-55
2022/04/29 11:19:34;;;;;;;11.67;6.90;;;;;;;;;;5005909;28;20270;-55
2022/04/29 11:24:46;;;;;;;9.13;6.50;;;;;;;;;;5009660;28;20185;-54
2022/04/29 11:27:13;;;;;;;7.37;6.53;;;;;;;;;;5008609;28;20645;-53
2022/04/29 11:29:43;;;;;;;8.13;7.00;;;;;;;;;;5008953;28;20190;-55
2022/04/29 11:32:09;;;;;;;9.87;6.47;;;;;;;;;;5007547;28;20492;-54
2022/04/29 11:34:35;;;;;;;8.63;6.90;;;;;;;;;;5008881;28;20198;-54
2022/04/29 11:37:01;;;;;;;8.67;7.00;;;;;;;;;;5006570;28;21273;-53
2022/04/29 11:39:27;;;;;;;11.13;6.70;;;;;;;;;;5002207;28;20185;-54
2022/04/29 11:41:54;;;;;;;9.00;7.00;;;;;;;;;;5008005;28;20210;-53
2022/04/29 11:44:44;;;;;;;11.00;6.40;;;;;;;;;;5009354;28;20650;-53
2022/04/29 11:47:14;;;;;;;7.33;6.60;;;;;;;;;;5007368;28;20173;-54
2022/04/29 11:49:40;;;;;;;9.67;6.00;;;;;;;;;;5006423;28;20191;-54
2022/04/29 11:52:18;;;;;;;8.13;6.70;;;;;;;;;;5003754;28;20198;-54
2022/04/29 11:54:55;;;;;;;12.83;8.40;;;;;;;;;;5010247;28;20192;-55
2022/04/29 11:57:21;;;;;;;13.30;8.03;;;;;;;;;;5005078;28;20181;-54
2022/04/29 11:59:48;;;;;;;13.50;12.30;;;;;;;;;;5010231;28;20253;-54
2022/04/29 12:02:18;;;;;;;10.40;9.43;;;;;;;;;;5005581;28;20335;-54
2022/04/29 12:04:56;;;;;;;8.00;6.40;;;;;;;;;;5006790;28;20203;-54
2022/04/29 12:07:25;;;;;;;13.90;6.67;;;;;;;;;;5006100;28;20302;-54
2022/04/29 12:09:52;;;;;;;7.47;5.97;;;;;;;;;;5009047;28;20196;-53
2022/04/29 12:12:24;;;;;;;13.30;7.43;;;;;;;;;;5007619;28;20248;-54
2022/04/29 12:14:50;;;;;;;9.43;6.13;;;;;;;;;;5006742;28;20285;-52
2022/04/29 12:17:20;;;;;;;8.67;6.20;;;;;;;;;;5000885;28;20278;-52
2022/04/29 12:19:55;;;;;;;9.60;6.43;;;;;;;;;;5007511;28;20193;-52
2022/04/29 12:22:29;;;;;;;14.47;8.60;;;;;;;;;;5008857;28;20178;-52
2022/04/29 12:24:56;;;;;;;7.70;6.50;;;;;;;;;;5008436;28;20178;-52
2022/04/29 12:27:31;;;;;;;6.83;6.13;;;;;;;;;;4999216;28;20175;-53
2022/04/29 12:35:31;;;;;;;10.23;6.07;;;;;;;;;;5002334;28;20244;-53
2022/04/29 12:37:57;;;;;;;8.00;6.80;;;;;;;;;;5006379;28;20229;-54
2022/04/29 12:40:30;;;;;;;12.40;6.93;;;;;;;;;;5008773;28;20582;-52
2022/04/29 12:43:10;;;;;;;6.67;5.43;;;;;;;;;;5009158;28;20186;-54
2022/04/29 12:45:36;;;;;;;9.33;5.87;;;;;;;;;;5003513;28;20213;-53
2022/04/29 12:48:03;;;;;;;9.80;6.63;;;;;;;;;;5004090;28;20216;-53
2022/04/29 12:50:34;;;;;;;9.67;6.30;;;;;;;;;;5011097;28;20181;-53
2022/04/29 12:53:03;;;;;;;7.50;6.70;;;;;;;;;;5010157;28;20230;-54
2022/04/29 12:55:35;;;;;;;9.17;6.43;;;;;;;;;;5010798;28;20544;-53
2022/04/29 12:58:05;;;;;;;8.70;6.87;;;;;;;;;;5010191;28;20241;-53
2022/04/29 13:00:32;;;;;;;11.40;6.20;;;;;;;;;;5006138;28;20236;-53
2022/04/29 13:03:05;;;;;;;8.53;6.50;;;;;;;;;;4998548;28;20175;-53
2022/04/29 13:05:32;;;;;;;8.20;6.90;;;;;;;;;;5008744;28;20186;-53
2022/04/29 13:08:03;;;;;;;10.03;6.87;;;;;;;;;;5003353;28;20205;-52
2022/04/29 13:10:29;;;;;;;10.13;7.30;;;;;;;;;;5010150;28;20186;-52
2022/04/29 13:12:59;;;;;;;10.93;6.90;;;;;;;;;;5014953;28;20251;-53
2022/04/29 13:15:26;;;;;;;14.63;6.67;;;;;;;;;;5005121;28;20178;-53
2022/04/29 13:17:52;;;;;;;8.20;6.03;;;;;;;;;;5006811;28;20224;-53
2022/04/29 13:20:18;;;;;;;10.13;7.50;;;;;;;;;;5009599;28;20170;-53
2022/04/29 13:22:44;;;;;;;9.23;6.73;;;;;;;;;;5001782;28;20187;-52
2022/04/29 13:25:10;;;;;;;7.37;6.50;;;;;;;;;;4993695;28;20241;-52
2022/04/29 13:27:37;;;;;;;10.83;7.07;;;;;;;;;;5004624;28;20800;-53
2022/04/29 13:30:05;;;;;;;10.20;8.00;;;;;;;;;;5008813;28;20183;-53
2022/04/29 13:32:31;;;;;;;8.83;7.57;;;;;;;;;;5004204;28;20283;-53
2022/04/29 13:34:57;;;;;;;10.10;7.93;;;;;;;;;;4999663;28;20725;-52
2022/04/29 13:37:24;;;;;;;9.83;7.37;;;;;;;;;;5004798;28;20190;-52
2022/04/29 13:39:50;;;;;;;10.20;7.33;;;;;;;;;;5003615;28;20183;-52
2022/04/29 13:42:16;;;;;;;7.83;6.80;;;;;;;;;;5006315;28;20186;-53
2022/04/29 13:44:43;;;;;;;13.23;7.93;;;;;;;;;;5008991;28;20202;-53
2022/04/29 13:47:09;;;;;;;12.63;7.07;;;;;;;;;;5005199;28;20221;-52
2022/04/29 13:49:35;;;;;;;10.37;8.47;;;;;;;;;;4999246;28;20736;-53
2022/04/29 13:53:07;;;;;;;10.57;7.80;;;;;;;;;;5004890;28;20569;-54
2022/04/29 13:54:47;;;;;;;8.20;6.50;;;;;;;;;;5000157;28;20213;-54
2022/04/29 13:57:13;;;;;;;11.47;10.30;;;;;;;;;;5002503;28;20182;-53
2022/04/29 13:59:39;;;;;;;12.77;11.53;;;;;;;;;;4998152;28;20182;-52
2022/04/29 14:02:05;;;;;;;18.10;10.30;;;;;;;;;;5005161;28;20848;-53
2022/04/29 14:04:32;;;;;;;11.27;7.93;;;;;;;;;;4998145;28;20183;-54
2022/04/29 14:06:58;;;;;;;9.80;8.57;;;;;;;;;;5006771;28;20188;-53
2022/04/29 14:09:24;;;;;;;9.17;7.73;;;;;;;;;;5006969;28;20174;-53
2022/04/29 14:11:50;;;;;;;17.27;8.57;;;;;;;;;;5006440;28;20218;-52
2022/04/29 14:14:16;;;;;;;11.50;8.80;;;;;;;;;;5005492;28;20206;-53
2022/04/29 14:16:42;;;;;;;11.07;8.30;;;;;;;;;;5007620;28;20632;-52
2022/04/29 14:19:08;;;;;;;9.23;7.40;;;;;;;;;;5002911;28;20257;-52
2022/04/29 14:21:34;;;;;;;10.50;8.37;;;;;;;;;;5007024;28;20166;-53
2022/04/29 14:24:01;;;;;;;11.83;8.47;;;;;;;;;;4993147;28;20186;-53
2022/04/29 14:26:27;;;;;;;18.13;9.20;;;;;;;;;;4996471;28;20186;-52
2022/04/29 14:28:52;;;;;;;15.70;7.90;;;;;;;;;;4997046;28;20204;-53
2022/04/29 14:31:19;;;;;;;12.07;8.57;;;;;;;;;;4992556;28;20193;-52
2022/04/29 14:33:45;;;;;;;11.53;9.00;;;;;;;;;;4999066;28;20229;-53
2022/04/29 14:36:11;;;;;;;13.80;9.50;;;;;;;;;;4991752;28;20180;-53
2022/04/29 14:38:38;;;;;;;11.93;8.23;;;;;;;;;;5001482;28;20191;-53
2022/04/29 14:41:04;;;;;;;11.47;9.03;;;;;;;;;;4999458;28;20175;-55
2022/04/29 14:43:30;;;;;;;11.80;9.23;;;;;;;;;;5005093;28;20209;-54
2022/04/29 14:45:56;;;;;;;11.03;9.57;;;;;;;;;;5002969;28;20684;-55
2022/04/29 14:48:22;;;;;;;9.73;7.90;;;;;;;;;;5001434;28;20186;-54
2022/04/29 14:50:51;;;;;;;10.30;8.30;;;;;;;;;;5008041;28;20817;-54
2022/04/29 14:53:17;;;;;;;10.67;7.97;;;;;;;;;;5003076;28;20635;-54
2022/04/29 14:55:43;;;;;;;9.47;7.87;;;;;;;;;;5004108;28;20544;-54
2022/04/29 14:58:09;;;;;;;8.83;7.67;;;;;;;;;;5006702;28;20244;-55
2022/04/29 15:00:35;;;;;;;7.40;6.70;;;;;;;;;;5007425;28;20541;-55
2022/04/29 15:03:01;;;;;;;10.20;7.17;;;;;;;;;;5005735;28;20175;-54
2022/04/29 15:05:27;;;;;;;7.90;7.17;;;;;;;;;;5006504;28;20248;-58
2022/04/29 15:07:53;;;;;;;12.30;7.27;;;;;;;;;;5004301;28;20187;-55
2022/04/29 15:15:50;;;;;;;8.07;6.63;;;;;;;;;;5006276;28;20231;-54
2022/04/29 15:18:19;;;;;;;9.57;7.60;;;;;;;;;;5002164;28;20209;-54
2022/04/29 15:20:46;;;;;;;8.97;7.33;;;;;;;;;;5005692;28;20219;-54
2022/04/29 15:23:13;;;;;;;8.40;7.57;;;;;;;;;;4995880;28;20187;-54
2022/04/29 15:25:39;;;;;;;9.10;7.50;;;;;;;;;;4998770;28;20222;-53
2022/04/29 15:28:06;;;;;;;7.47;6.70;;;;;;;;;;5004157;28;20185;-54